createdAt,value
2019-03-27T00:01:09.439Z,2.10
2019-03-27T00:03:37.008Z,2.30
2019-03-27T00:06:04.542Z,2.20
2019-03-27T00:08:32.867Z,2.30
2019-03-27T00:11:00.442Z,2.30
2019-03-27T00:13:28.018Z,2.30
2019-03-27T00:15:55.555Z,2.40
2019-03-27T00:18:23.092Z,2.40
2019-03-27T00:20:50.857Z,2.40
2019-03-27T00:23:18.395Z,2.30
2019-03-27T00:25:45.959Z,2.20
2019-03-27T00:28:13.500Z,2.40
2019-03-27T00:30:41.069Z,2.30
2019-03-27T00:33:08.603Z,2.40
2019-03-27T00:35:36.507Z,2.40
2019-03-27T00:38:04.271Z,2.40
2019-03-27T00:40:31.822Z,2.30
2019-03-27T00:42:59.426Z,2.30
2019-03-27T00:45:27.315Z,2.20
2019-03-27T00:47:54.593Z,2.20
2019-03-27T00:50:22.128Z,2.10
2019-03-27T00:52:49.691Z,2.00
2019-03-27T00:55:17.239Z,1.90
2019-03-27T00:57:44.795Z,1.80
2019-03-27T01:00:27.029Z,1.90
2019-03-27T01:02:54.594Z,1.90
2019-03-27T01:05:22.135Z,1.90
2019-03-27T01:07:49.704Z,1.90
2019-03-27T01:10:17.258Z,1.90
2019-03-27T01:12:44.796Z,1.90
2019-03-27T01:15:12.582Z,2.00
2019-03-27T01:17:40.124Z,1.90
2019-03-27T01:20:07.685Z,1.90
2019-03-27T01:22:35.247Z,1.80
2019-03-27T01:25:02.779Z,1.90
2019-03-27T01:27:35.423Z,1.80
2019-03-27T01:29:59.715Z,1.70
2019-03-27T01:32:27.277Z,1.80
2019-03-27T01:34:55.633Z,1.70
2019-03-27T01:37:23.163Z,1.70
2019-03-27T01:39:50.732Z,1.80
2019-03-27T01:42:18.291Z,1.70
2019-03-27T01:44:45.856Z,1.80
2019-03-27T01:47:13.399Z,1.80
2019-03-27T01:49:40.967Z,1.70
2019-03-27T01:52:08.507Z,1.70
2019-03-27T01:54:37.032Z,1.80
2019-03-27T01:57:04.606Z,1.80
2019-03-27T01:59:32.935Z,1.80
2019-03-27T02:02:00.476Z,1.80
2019-03-27T02:04:28.015Z,1.80
2019-03-27T02:06:55.579Z,1.80
2019-03-27T02:09:23.111Z,1.80
2019-03-27T02:11:50.677Z,1.80
2019-03-27T02:14:18.215Z,1.70
2019-03-27T02:16:45.770Z,1.60
2019-03-27T02:19:14.071Z,1.50
2019-03-27T02:21:41.627Z,1.50
2019-03-27T02:24:09.164Z,1.60
2019-03-27T02:26:36.732Z,1.60
2019-03-27T02:29:04.267Z,1.60
2019-03-27T02:31:31.837Z,1.50
2019-03-27T02:33:59.374Z,1.70
2019-03-27T02:36:26.917Z,1.80
2019-03-27T02:38:54.476Z,1.80
2019-03-27T02:41:22.035Z,1.70
2019-03-27T02:43:49.599Z,1.70
2019-03-27T02:46:24.325Z,1.60
2019-03-27T02:48:44.737Z,1.60
2019-03-27T02:51:12.300Z,1.60
2019-03-27T02:53:40.626Z,1.70
2019-03-27T02:56:08.164Z,1.70
2019-03-27T02:58:35.728Z,1.70
2019-03-27T03:01:03.270Z,1.70
2019-03-27T03:03:30.838Z,1.70
2019-03-27T03:05:58.424Z,1.60
2019-03-27T03:08:25.999Z,1.60
2019-03-27T03:10:54.315Z,1.50
2019-03-27T03:13:21.886Z,1.50
2019-03-27T03:15:49.444Z,1.40
2019-03-27T03:18:17.013Z,1.40
2019-03-27T03:20:44.549Z,1.40
2019-03-27T03:23:12.123Z,1.40
2019-03-27T03:25:39.660Z,1.40
2019-03-27T03:28:07.220Z,1.30
2019-03-27T03:30:34.763Z,1.40
2019-03-27T03:33:02.380Z,1.20
2019-03-27T03:35:29.920Z,1.20
2019-03-27T03:37:57.473Z,1.10
2019-03-27T03:40:25.044Z,1.00
2019-03-27T03:42:52.584Z,1.00
2019-03-27T03:45:20.151Z,0.90
2019-03-27T03:47:47.716Z,1.00
2019-03-27T03:50:26.847Z,1.00
2019-03-27T03:52:54.412Z,1.00
2019-03-27T03:55:21.955Z,0.90
2019-03-27T03:57:49.519Z,0.80
2019-03-27T04:00:17.070Z,0.90
2019-03-27T04:02:44.643Z,0.80
2019-03-27T04:05:12.403Z,0.90
2019-03-27T04:07:39.944Z,1.10
2019-03-27T04:10:08.313Z,1.00
2019-03-27T04:12:35.880Z,1.00
2019-03-27T04:15:03.442Z,1.00
2019-03-27T04:17:30.986Z,1.00
2019-03-27T04:19:58.525Z,1.10
2019-03-27T04:22:26.088Z,1.00
2019-03-27T04:24:53.630Z,1.00
2019-03-27T04:27:21.213Z,1.00
2019-03-27T04:29:48.781Z,0.90
2019-03-27T04:32:16.326Z,0.90
2019-03-27T04:34:47.068Z,0.90
2019-03-27T04:37:11.484Z,0.90
2019-03-27T04:39:39.051Z,0.90
2019-03-27T04:42:07.365Z,0.80
2019-03-27T04:44:34.935Z,0.80
2019-03-27T04:47:02.475Z,0.80
2019-03-27T04:49:30.046Z,0.80
2019-03-27T04:51:57.584Z,0.90
2019-03-27T04:54:27.002Z,0.80
2019-03-27T04:56:52.752Z,0.60
2019-03-27T04:59:20.315Z,0.80
2019-03-27T05:01:47.851Z,0.90
2019-03-27T05:04:15.410Z,0.90
2019-03-27T05:06:42.980Z,1.10
2019-03-27T05:09:10.547Z,0.90
2019-03-27T05:11:38.078Z,0.90
2019-03-27T05:14:06.614Z,1.00
2019-03-27T05:16:34.146Z,0.90
2019-03-27T05:19:01.710Z,0.90
2019-03-27T05:21:30.019Z,1.10
2019-03-27T05:23:57.597Z,1.00
2019-03-27T05:26:25.135Z,1.10
2019-03-27T05:28:52.695Z,1.30
2019-03-27T05:31:20.231Z,1.30
2019-03-27T05:33:47.791Z,1.50
2019-03-27T05:36:15.354Z,1.70
2019-03-27T05:38:42.915Z,1.70
2019-03-27T05:41:10.460Z,1.70
2019-03-27T05:43:38.020Z,1.70
2019-03-27T05:46:05.587Z,1.70
2019-03-27T05:48:33.149Z,1.70
2019-03-27T05:51:00.699Z,1.60
2019-03-27T05:53:28.241Z,1.50
2019-03-27T05:55:55.806Z,1.50
2019-03-27T05:58:23.345Z,1.40
2019-03-27T06:00:50.908Z,1.40
2019-03-27T06:03:19.238Z,1.40
2019-03-27T06:05:46.783Z,1.40
2019-03-27T06:08:14.322Z,1.50
2019-03-27T06:10:41.883Z,1.60
2019-03-27T06:13:09.414Z,1.70
2019-03-27T06:15:36.987Z,1.70
2019-03-27T06:18:12.975Z,1.90
2019-03-27T06:20:32.136Z,2.00
2019-03-27T06:22:59.680Z,2.10
2019-03-27T06:25:27.256Z,2.20
2019-03-27T06:27:54.799Z,2.30
2019-03-27T06:30:22.367Z,2.30
2019-03-27T06:32:49.930Z,2.30
2019-03-27T06:35:20.038Z,2.50
2019-03-27T06:37:45.091Z,2.70
2019-03-27T06:40:12.660Z,2.70
2019-03-27T06:42:40.194Z,2.90
2019-03-27T06:45:07.755Z,3.10
2019-03-27T06:47:35.288Z,3.30
2019-03-27T06:50:02.855Z,3.40
2019-03-27T06:52:30.407Z,3.50
2019-03-27T06:54:57.967Z,3.70
2019-03-27T06:57:25.505Z,3.80
2019-03-27T06:59:54.044Z,4.10
2019-03-27T07:02:21.585Z,4.20
2019-03-27T07:04:49.992Z,4.50
2019-03-27T07:07:18.275Z,4.70
2019-03-27T07:09:45.847Z,4.60
2019-03-27T07:12:21.109Z,4.80
2019-03-27T07:14:40.979Z,5.10
2019-03-27T07:17:09.558Z,5.20
2019-03-27T07:19:37.882Z,5.50
2019-03-27T07:22:05.415Z,5.50
2019-03-27T07:24:32.975Z,5.60
2019-03-27T07:27:01.276Z,5.70
2019-03-27T07:29:28.842Z,5.60
2019-03-27T07:31:56.501Z,5.90
2019-03-27T07:34:24.064Z,5.90
2019-03-27T07:36:51.651Z,6.10
2019-03-27T07:39:19.975Z,6.40
2019-03-27T07:41:47.539Z,6.40
2019-03-27T07:44:15.072Z,6.60
2019-03-27T07:46:43.399Z,6.60
2019-03-27T07:49:10.941Z,6.60
2019-03-27T07:51:38.592Z,6.60
2019-03-27T07:54:06.127Z,6.70
2019-03-27T07:56:33.709Z,6.70
2019-03-27T07:59:01.332Z,6.60
2019-03-27T08:01:28.859Z,6.70
2019-03-27T08:03:56.391Z,6.90
2019-03-27T08:06:23.936Z,7.10
2019-03-27T08:08:51.495Z,7.20
2019-03-27T08:11:19.112Z,7.40
2019-03-27T08:13:46.666Z,7.50
2019-03-27T08:16:14.203Z,7.50
2019-03-27T08:18:41.762Z,7.40
2019-03-27T08:21:09.317Z,7.50
2019-03-27T08:23:36.941Z,7.70
2019-03-27T08:26:04.626Z,7.90
2019-03-27T08:28:32.183Z,8.10
2019-03-27T08:30:59.719Z,7.90
2019-03-27T08:33:27.280Z,7.90
2019-03-27T08:35:54.845Z,8.10
2019-03-27T08:38:22.406Z,8.40
2019-03-27T08:40:49.941Z,8.50
2019-03-27T08:43:21.909Z,8.40
2019-03-27T08:45:45.197Z,8.30
2019-03-27T08:48:12.759Z,8.20
2019-03-27T08:50:40.302Z,8.60
2019-03-27T08:53:07.837Z,8.70
2019-03-27T08:55:35.415Z,8.40
2019-03-27T08:58:02.947Z,8.60
2019-03-27T09:00:47.108Z,8.80
2019-03-27T09:03:14.663Z,8.60
2019-03-27T09:05:42.232Z,8.50
2019-03-27T09:08:09.768Z,8.50
2019-03-27T09:10:37.326Z,8.70
2019-03-27T09:13:04.852Z,8.90
2019-03-27T09:15:32.384Z,9.10
2019-03-27T09:17:59.940Z,9.10
2019-03-27T09:20:27.504Z,9.00
2019-03-27T09:22:55.065Z,8.80
2019-03-27T09:25:22.595Z,8.90
2019-03-27T09:27:50.147Z,8.80
2019-03-27T09:30:17.704Z,9.00
2019-03-27T09:32:45.235Z,8.80
2019-03-27T09:35:13.776Z,8.90
2019-03-27T09:37:41.308Z,9.10
2019-03-27T09:40:09.885Z,9.40
2019-03-27T09:42:37.419Z,9.60
2019-03-27T09:45:07.460Z,9.30
2019-03-27T09:47:34.992Z,9.20
2019-03-27T09:50:02.527Z,9.40
2019-03-27T09:52:30.090Z,9.50
2019-03-27T09:54:57.627Z,9.20
2019-03-27T09:57:25.191Z,9.30
2019-03-27T09:59:52.727Z,9.50
2019-03-27T10:02:21.212Z,9.70
2019-03-27T10:04:49.723Z,9.60
2019-03-27T10:07:17.256Z,9.80
2019-03-27T10:09:44.796Z,9.80
2019-03-27T10:12:12.361Z,9.60
2019-03-27T10:14:39.891Z,9.40
2019-03-27T10:17:07.450Z,9.50
2019-03-27T10:19:34.984Z,9.60
2019-03-27T10:22:02.547Z,9.30
2019-03-27T10:24:30.076Z,9.60
2019-03-27T10:26:57.647Z,10.00
2019-03-27T10:29:25.187Z,10.20
2019-03-27T10:31:52.757Z,10.10
2019-03-27T10:34:20.295Z,10.30
2019-03-27T10:36:47.870Z,10.10
2019-03-27T10:39:15.428Z,10.10
2019-03-27T10:41:42.967Z,10.00
2019-03-27T10:44:10.537Z,10.20
2019-03-27T10:46:38.073Z,9.80
2019-03-27T10:49:06.400Z,10.30
2019-03-27T10:51:33.940Z,10.30
2019-03-27T10:54:01.503Z,10.40
2019-03-27T10:56:29.044Z,10.20
2019-03-27T10:58:56.616Z,10.20
2019-03-27T11:01:24.159Z,10.50
2019-03-27T11:03:52.130Z,10.50
2019-03-27T11:06:19.699Z,10.40
2019-03-27T11:08:47.233Z,9.80
2019-03-27T11:11:14.796Z,9.80
2019-03-27T11:13:42.331Z,9.70
2019-03-27T11:16:09.895Z,9.70
2019-03-27T11:18:37.456Z,9.70
2019-03-27T11:21:04.999Z,10.00
2019-03-27T11:23:32.564Z,10.00
2019-03-27T11:26:00.128Z,9.70
2019-03-27T11:28:27.693Z,9.60
2019-03-27T11:30:55.229Z,9.50
2019-03-27T11:33:23.788Z,9.70
2019-03-27T11:35:51.852Z,10.20
2019-03-27T11:38:18.964Z,10.60
2019-03-27T11:40:47.490Z,10.80
2019-03-27T11:43:15.029Z,10.90
2019-03-27T11:45:42.571Z,11.50
2019-03-27T11:48:10.132Z,11.60
2019-03-27T11:50:44.553Z,11.60
2019-03-27T11:53:06.022Z,10.70
2019-03-27T11:55:33.594Z,10.70
2019-03-27T11:58:01.135Z,11.10
2019-03-27T12:00:29.691Z,11.80
2019-03-27T12:02:58.114Z,12.20
2019-03-27T12:05:25.656Z,12.10
2019-03-27T12:07:53.217Z,11.90
2019-03-27T12:10:20.775Z,12.40
2019-03-27T12:12:48.470Z,12.70
2019-03-27T12:15:15.920Z,12.10
2019-03-27T12:17:43.460Z,12.50
2019-03-27T12:20:11.024Z,12.60
2019-03-27T12:22:38.563Z,12.30
2019-03-27T12:25:06.140Z,11.90
2019-03-27T12:27:33.681Z,11.70
2019-03-27T12:30:01.249Z,11.80
2019-03-27T12:32:28.794Z,12.10
2019-03-27T12:34:56.354Z,12.40
2019-03-27T12:37:23.882Z,12.40
2019-03-27T12:39:51.451Z,12.50
2019-03-27T12:42:18.987Z,12.40
2019-03-27T12:44:46.519Z,12.30
2019-03-27T12:47:14.079Z,11.70
2019-03-27T12:49:41.614Z,11.40
2019-03-27T12:52:09.176Z,11.50
2019-03-27T12:54:36.707Z,12.00
2019-03-27T12:57:04.262Z,12.00
2019-03-27T12:59:31.795Z,11.70
2019-03-27T13:02:00.411Z,11.40
2019-03-27T13:04:27.950Z,11.20
2019-03-27T13:06:55.516Z,11.40
2019-03-27T13:09:23.048Z,11.20
2019-03-27T13:11:51.376Z,11.60
2019-03-27T13:14:18.912Z,11.60
2019-03-27T13:16:46.447Z,11.60
2019-03-27T13:19:14.007Z,11.40
2019-03-27T13:21:41.575Z,11.40
2019-03-27T13:24:09.140Z,11.20
2019-03-27T13:26:36.671Z,11.20
2019-03-27T13:29:04.228Z,11.70
2019-03-27T13:31:33.974Z,11.80
2019-03-27T13:34:02.494Z,11.60
2019-03-27T13:36:30.035Z,11.20
2019-03-27T13:38:57.566Z,11.60
2019-03-27T13:41:25.140Z,11.50
2019-03-27T13:43:52.671Z,11.10
2019-03-27T13:46:20.235Z,11.10
2019-03-27T13:48:47.796Z,11.40
2019-03-27T13:51:15.326Z,11.20
2019-03-27T13:53:42.887Z,11.00
2019-03-27T13:56:10.455Z,11.30
2019-03-27T13:58:38.030Z,11.10
2019-03-27T14:01:08.652Z,10.60
2019-03-27T14:03:33.175Z,10.70
2019-03-27T14:06:00.718Z,11.00
2019-03-27T14:08:28.282Z,11.10
2019-03-27T14:10:55.816Z,11.40
2019-03-27T14:13:23.375Z,11.70
2019-03-27T14:15:50.922Z,11.70
2019-03-27T14:18:18.523Z,11.20
2019-03-27T14:20:46.079Z,10.90
2019-03-27T14:23:13.649Z,11.80
2019-03-27T14:25:41.186Z,11.70
2019-03-27T14:28:08.727Z,11.40
2019-03-27T14:30:48.016Z,11.80
2019-03-27T14:33:15.554Z,12.00
2019-03-27T14:35:43.883Z,11.60
2019-03-27T14:38:11.410Z,11.60
2019-03-27T14:40:39.967Z,11.80
2019-03-27T14:43:07.508Z,11.60
2019-03-27T14:45:35.075Z,11.50
2019-03-27T14:48:02.623Z,11.80
2019-03-27T14:50:30.195Z,11.80
2019-03-27T14:52:58.498Z,11.60
2019-03-27T14:55:26.063Z,11.60
2019-03-27T14:57:53.596Z,11.50
2019-03-27T15:00:21.154Z,11.70
2019-03-27T15:02:48.723Z,11.50
2019-03-27T15:05:16.265Z,11.70
2019-03-27T15:07:43.830Z,11.90
2019-03-27T15:10:11.392Z,11.10
2019-03-27T15:12:38.926Z,11.50
2019-03-27T15:15:07.371Z,11.80
2019-03-27T15:17:34.958Z,11.80
2019-03-27T15:20:03.258Z,11.80
2019-03-27T15:22:30.828Z,11.70
2019-03-27T15:24:58.394Z,11.80
2019-03-27T15:27:25.954Z,11.70
2019-03-27T15:29:53.516Z,11.60
2019-03-27T15:32:22.056Z,11.60
2019-03-27T15:34:49.618Z,11.40
2019-03-27T15:37:17.923Z,11.70
2019-03-27T15:39:45.488Z,11.70
2019-03-27T15:42:13.048Z,11.50
2019-03-27T15:44:40.608Z,11.40
2019-03-27T15:47:08.151Z,11.60
2019-03-27T15:49:35.711Z,11.50
2019-03-27T15:52:03.321Z,11.30
2019-03-27T15:54:31.878Z,11.20
2019-03-27T15:57:00.178Z,11.40
2019-03-27T15:59:27.710Z,11.40
2019-03-27T16:01:57.731Z,11.60
2019-03-27T16:04:22.862Z,11.30
2019-03-27T16:06:50.488Z,11.20
2019-03-27T16:09:18.019Z,11.50
2019-03-27T16:11:45.645Z,11.70
2019-03-27T16:14:13.212Z,12.10
2019-03-27T16:16:40.783Z,12.80
2019-03-27T16:19:08.338Z,12.50
2019-03-27T16:21:37.652Z,11.90
2019-03-27T16:24:06.563Z,11.60
2019-03-27T16:26:31.082Z,11.20
2019-03-27T16:28:59.407Z,10.50
2019-03-27T16:31:27.190Z,10.50
2019-03-27T16:33:54.831Z,10.70
2019-03-27T16:36:22.366Z,10.40
2019-03-27T16:38:49.926Z,10.30
2019-03-27T16:41:17.469Z,10.20
2019-03-27T16:43:45.034Z,10.20
2019-03-27T16:46:12.581Z,10.20
2019-03-27T16:48:40.178Z,10.20
2019-03-27T16:51:07.714Z,10.30
2019-03-27T16:53:35.267Z,10.40
2019-03-27T16:56:03.104Z,10.30
2019-03-27T16:58:30.711Z,10.50
2019-03-27T17:00:58.247Z,10.40
2019-03-27T17:03:25.804Z,10.30
2019-03-27T17:05:54.519Z,10.30
2019-03-27T17:08:20.947Z,10.20
2019-03-27T17:10:48.511Z,10.20
2019-03-27T17:13:16.077Z,10.20
2019-03-27T17:15:43.616Z,10.10
2019-03-27T17:18:11.177Z,10.10
2019-03-27T17:20:38.740Z,10.30
2019-03-27T17:23:17.534Z,10.20
2019-03-27T17:25:34.634Z,10.30
2019-03-27T17:28:02.199Z,10.30
2019-03-27T17:30:31.944Z,10.30
2019-03-27T17:32:57.415Z,10.20
2019-03-27T17:35:25.046Z,10.00
2019-03-27T17:37:52.603Z,9.90
2019-03-27T17:40:20.904Z,9.70
2019-03-27T17:42:48.463Z,9.70
2019-03-27T17:45:15.994Z,9.60
2019-03-27T17:47:43.555Z,9.40
2019-03-27T17:50:11.096Z,9.40
2019-03-27T17:52:39.419Z,9.40
2019-03-27T17:55:06.986Z,9.40
2019-03-27T17:57:34.684Z,9.30
2019-03-27T18:00:03.013Z,9.10
2019-03-27T18:02:30.578Z,9.10
2019-03-27T18:04:58.189Z,9.10
2019-03-27T18:07:25.735Z,9.10
2019-03-27T18:09:54.062Z,8.80
2019-03-27T18:12:21.620Z,8.80
2019-03-27T18:14:49.169Z,8.60
2019-03-27T18:17:16.704Z,8.40
2019-03-27T18:19:44.260Z,8.20
2019-03-27T18:22:11.804Z,8.00
2019-03-27T18:24:39.439Z,7.80
2019-03-27T18:27:06.974Z,7.70
2019-03-27T18:29:34.527Z,7.70
2019-03-27T18:32:02.059Z,7.60
2019-03-27T18:34:29.624Z,7.50
2019-03-27T18:36:57.301Z,7.50
2019-03-27T18:39:24.854Z,7.30
2019-03-27T18:41:52.473Z,7.20
2019-03-27T18:44:20.994Z,7.10
2019-03-27T18:46:48.566Z,7.00
2019-03-27T18:49:16.125Z,6.90
2019-03-27T18:51:43.659Z,6.80
2019-03-27T18:54:11.216Z,6.80
2019-03-27T18:56:38.755Z,6.60
2019-03-27T18:59:06.315Z,6.50
2019-03-27T19:01:33.855Z,6.50
2019-03-27T19:04:01.422Z,6.50
2019-03-27T19:06:28.983Z,6.50
2019-03-27T19:08:56.511Z,6.40
2019-03-27T19:11:24.071Z,6.30
2019-03-27T19:13:51.627Z,6.30
2019-03-27T19:16:19.933Z,5.90
2019-03-27T19:18:47.496Z,5.90
2019-03-27T19:21:15.059Z,6.00
2019-03-27T19:23:42.606Z,6.00
2019-03-27T19:26:10.168Z,5.90
2019-03-27T19:28:37.700Z,5.80
2019-03-27T19:31:05.294Z,5.90
2019-03-27T19:33:32.819Z,5.90
2019-03-27T19:36:00.387Z,5.80
2019-03-27T19:38:27.991Z,5.80
2019-03-27T19:40:55.531Z,5.70
2019-03-27T19:43:23.094Z,5.60
2019-03-27T19:45:50.647Z,5.60
2019-03-27T19:48:18.208Z,5.50
2019-03-27T19:50:45.748Z,5.50
2019-03-27T19:53:13.315Z,5.50
2019-03-27T19:55:40.851Z,5.30
2019-03-27T19:58:08.412Z,5.30
2019-03-27T20:00:35.955Z,5.30
2019-03-27T20:03:03.516Z,5.20
2019-03-27T20:05:31.060Z,5.10
2019-03-27T20:07:58.595Z,5.00
2019-03-27T20:10:26.159Z,4.90
2019-03-27T20:12:54.459Z,4.80
2019-03-27T20:15:22.028Z,4.70
2019-03-27T20:17:49.591Z,4.70
2019-03-27T20:20:17.124Z,4.70
2019-03-27T20:22:44.683Z,4.70
2019-03-27T20:25:14.791Z,4.60
2019-03-27T20:27:39.819Z,4.50
2019-03-27T20:30:16.294Z,4.40
2019-03-27T20:32:43.832Z,4.40
2019-03-27T20:35:13.087Z,4.40
2019-03-27T20:37:41.381Z,4.30
2019-03-27T20:40:09.678Z,4.30
2019-03-27T20:42:37.235Z,4.30
2019-03-27T20:45:05.595Z,4.30
2019-03-27T20:47:33.920Z,4.10
2019-03-27T20:50:01.477Z,4.10
2019-03-27T20:52:29.023Z,4.00
2019-03-27T20:54:56.592Z,4.00
2019-03-27T20:57:24.159Z,4.00
2019-03-27T20:59:51.724Z,4.10
2019-03-27T21:02:20.418Z,4.00
2019-03-27T21:04:46.854Z,4.00
2019-03-27T21:07:14.415Z,3.90
2019-03-27T21:09:41.970Z,3.80
2019-03-27T21:12:09.501Z,3.80
2019-03-27T21:14:37.056Z,3.70
2019-03-27T21:17:04.614Z,3.80
2019-03-27T21:19:32.171Z,3.80
2019-03-27T21:21:59.703Z,3.80
2019-03-27T21:24:27.261Z,3.80
2019-03-27T21:26:54.791Z,3.80
2019-03-27T21:29:23.129Z,3.80
2019-03-27T21:31:50.665Z,3.80
2019-03-27T21:34:18.223Z,3.70
2019-03-27T21:36:45.751Z,3.70
2019-03-27T21:39:13.283Z,3.50
2019-03-27T21:41:41.615Z,3.20
2019-03-27T21:44:09.147Z,3.20
2019-03-27T21:46:36.750Z,3.30
2019-03-27T21:49:04.303Z,3.20
2019-03-27T21:51:31.834Z,3.20
2019-03-27T21:53:59.383Z,3.20
2019-03-27T21:56:27.969Z,3.10
2019-03-27T21:58:55.510Z,3.10
2019-03-27T22:01:23.073Z,2.90
2019-03-27T22:03:50.605Z,2.90
2019-03-27T22:06:18.942Z,2.90
2019-03-27T22:08:46.481Z,2.90
2019-03-27T22:11:14.046Z,2.90
2019-03-27T22:13:41.599Z,3.00
2019-03-27T22:16:09.166Z,3.00
2019-03-27T22:18:36.718Z,2.80
2019-03-27T22:21:04.280Z,2.80
2019-03-27T22:23:32.311Z,2.90
2019-03-27T22:25:59.853Z,2.90
2019-03-27T22:28:28.172Z,2.90
2019-03-27T22:30:55.743Z,2.80
2019-03-27T22:33:23.311Z,2.70
2019-03-27T22:35:50.845Z,2.70
2019-03-27T22:38:18.404Z,2.70
2019-03-27T22:40:45.964Z,2.70
2019-03-27T22:43:14.524Z,2.80
2019-03-27T22:45:42.100Z,2.80
2019-03-27T22:48:09.651Z,2.60
2019-03-27T22:50:38.204Z,2.60
2019-03-27T22:53:05.910Z,2.50
2019-03-27T22:55:33.468Z,2.50
2019-03-27T22:58:01.006Z,2.50
2019-03-27T23:00:30.392Z,2.40
2019-03-27T23:02:57.922Z,2.50
2019-03-27T23:05:25.779Z,2.70
2019-03-27T23:07:53.336Z,2.80
2019-03-27T23:10:21.635Z,2.60
2019-03-27T23:12:49.199Z,2.60
2019-03-27T23:15:16.735Z,2.60
2019-03-27T23:17:44.308Z,2.50
2019-03-27T23:20:12.768Z,2.60
2019-03-27T23:22:41.099Z,2.40
2019-03-27T23:25:08.635Z,2.40
2019-03-27T23:27:36.207Z,2.20
2019-03-27T23:30:04.487Z,2.10
2019-03-27T23:32:32.058Z,2.30
2019-03-27T23:34:59.592Z,2.50
2019-03-27T23:37:27.151Z,2.40
2019-03-27T23:39:54.690Z,2.50
2019-03-27T23:42:22.254Z,2.50
2019-03-27T23:44:49.792Z,2.50
2019-03-27T23:47:17.328Z,2.50
2019-03-27T23:49:44.892Z,2.50
2019-03-27T23:52:12.436Z,2.50
2019-03-27T23:54:40.759Z,2.60
2019-03-27T23:57:08.284Z,2.50
2019-03-27T23:59:35.842Z,2.60
